New Hartford, Connecticut
Current Conditions -  °F | °C
As of 6:13 PM on Thursday 27 Nov 2014 (Local Time) from KBDL Reporting Station
Light Snow Light Snow  
Wind Chill: 34°   Ceiling: 2200
Heat Index: 34°   Visibility: 10mi
Dew Point: 28°   Wind: 3mph
Humidity: 79%   Direction: 10°N
Pressure: 29.99"   Gusts: NA
Location:  41.88°N, 72.98°W
Report Text: KBDL 272313Z 01003KT 10SM -SN BKN022 BKN039 OVC055 01/M02 A2999 RMK AO2 P0000 T00111022
Loading
Personal Weather Stations






























Interactive Weather Map New forecast layout! Learn more

10-Day Weather Forecast

Advertisements
Track Severe Weather on mobile